createdAt,value
2017-06-12T00:00:35.569Z,67.29
2017-06-12T00:01:35.546Z,67.48
2017-06-12T00:02:35.644Z,67.77
2017-06-12T00:03:35.209Z,67.83
2017-06-12T00:04:35.493Z,67.58
2017-06-12T00:05:35.475Z,67.29
2017-06-12T00:06:35.450Z,67.54
2017-06-12T00:07:35.433Z,67.54
2017-06-12T00:08:35.412Z,67.25
2017-06-12T00:09:35.393Z,67.45
2017-06-12T00:10:35.375Z,67.16
2017-06-12T00:11:35.353Z,67.07
2017-06-12T00:12:35.337Z,66.58
2017-06-12T00:13:35.324Z,66.3
2017-06-12T00:14:35.312Z,66.2
2017-06-12T00:15:35.285Z,66.39
2017-06-12T00:16:35.257Z,65.81
2017-06-12T00:17:35.236Z,65.62
2017-06-12T00:18:35.224Z,65.81
2017-06-12T00:19:35.208Z,65.81
2017-06-12T00:20:35.178Z,65.14
2017-06-12T00:21:35.161Z,64.95
2017-06-12T00:22:35.140Z,65.05
2017-06-12T00:23:35.120Z,64.66
2017-06-12T00:24:35.103Z,63.99
2017-06-12T00:25:35.140Z,63.89
2017-06-12T00:26:35.109Z,64.18
2017-06-12T00:27:35.045Z,63.7
2017-06-12T00:28:35.027Z,64.02
2017-06-12T00:29:35.008Z,63.92
2017-06-12T00:30:34.989Z,63.54
2017-06-12T00:31:34.967Z,62.96
2017-06-12T00:32:34.950Z,62.58
2017-06-12T00:33:34.937Z,61.81
2017-06-12T00:34:34.918Z,61.91
2017-06-12T00:35:34.891Z,62.07
2017-06-12T00:36:34.870Z,61.52
2017-06-12T00:37:34.852Z,61.43
2017-06-12T00:38:34.833Z,60.85
2017-06-12T00:39:34.814Z,60.75
2017-06-12T00:40:34.792Z,60.66
2017-06-12T00:41:34.773Z,60.75
2017-06-12T00:42:34.758Z,60.85
2017-06-12T00:43:34.434Z,61.04
2017-06-12T00:44:34.720Z,61.14
2017-06-12T00:45:34.721Z,60.94
2017-06-12T00:46:34.677Z,60.94
2017-06-12T00:47:34.662Z,60.82
2017-06-12T00:48:34.643Z,61.01
2017-06-12T00:49:34.618Z,60.43
2017-06-12T00:50:34.301Z,60.85
2017-06-12T00:51:34.581Z,60.72
2017-06-12T00:52:34.566Z,60.91
2017-06-12T00:53:34.554Z,60.82
2017-06-12T00:54:34.531Z,60.82
2017-06-12T00:55:34.512Z,60.91
2017-06-12T00:56:34.495Z,60.91
2017-06-12T00:57:34.464Z,60.63
2017-06-12T00:58:34.450Z,61.01
2017-06-12T00:59:34.427Z,61.3
2017-06-12T01:00:34.410Z,61.2
2017-06-12T01:01:34.391Z,61.3
2017-06-12T01:02:34.376Z,60.82
2017-06-12T01:03:34.354Z,60.98
2017-06-12T01:04:34.333Z,61.55
2017-06-12T01:05:34.314Z,61.84
2017-06-12T01:06:34.290Z,61.46
2017-06-12T01:07:34.274Z,61.36
2017-06-12T01:08:34.251Z,61.27
2017-06-12T01:09:34.231Z,61.75
2017-06-12T01:10:34.212Z,61.75
2017-06-12T01:11:34.193Z,61.65
2017-06-12T01:12:34.177Z,62.04
2017-06-12T01:13:34.160Z,62.04
2017-06-12T01:14:34.135Z,62.13
2017-06-12T01:15:34.118Z,62.13
2017-06-12T01:16:34.097Z,62.23
2017-06-12T01:17:34.077Z,62.04
2017-06-12T01:18:34.091Z,61.75
2017-06-12T01:19:34.039Z,61.55
2017-06-12T01:20:34.022Z,61.27
2017-06-12T01:21:34.005Z,60.88
2017-06-12T01:22:34.030Z,60.88
2017-06-12T01:23:33.957Z,60.78
2017-06-12T01:24:33.939Z,60.98
2017-06-12T01:25:33.926Z,60.69
2017-06-12T01:26:33.902Z,60.88
2017-06-12T01:27:33.889Z,60.47
2017-06-12T01:28:33.866Z,60.5
2017-06-12T01:29:33.843Z,60.28
2017-06-12T01:30:33.841Z,60.28
2017-06-12T01:31:33.855Z,59.7
2017-06-12T01:32:33.785Z,60.28
2017-06-12T01:33:33.768Z,60.18
2017-06-12T01:34:33.746Z,59.61
2017-06-12T01:35:33.727Z,59.8
2017-06-12T01:36:33.708Z,60.08
2017-06-12T01:37:33.687Z,59.99
2017-06-12T01:38:33.671Z,60.08
2017-06-12T01:39:33.649Z,59.61
2017-06-12T01:40:33.626Z,59.61
2017-06-12T01:41:33.614Z,60.08
2017-06-12T01:42:33.589Z,59.8
2017-06-12T01:43:33.568Z,60.18
2017-06-12T01:44:33.550Z,60.18
2017-06-12T01:45:33.531Z,60.28
2017-06-12T01:46:33.515Z,60.47
2017-06-12T01:47:33.493Z,60.85
2017-06-12T01:48:33.473Z,60.85
2017-06-12T01:49:33.450Z,61.14
2017-06-12T01:50:33.429Z,60.92
2017-06-12T01:51:33.408Z,60.72
2017-06-12T01:52:33.389Z,61.59
2017-06-12T01:53:33.373Z,61.59
2017-06-12T01:54:33.352Z,61.4
2017-06-12T01:55:33.331Z,61.02
2017-06-12T01:56:33.314Z,61.02
2017-06-12T01:57:33.297Z,61.49
2017-06-12T01:58:33.270Z,61.59
2017-06-12T01:59:33.256Z,61.49
2017-06-12T02:00:33.238Z,61.02
2017-06-12T02:01:33.212Z,61.02
2017-06-12T02:02:33.244Z,60.72
2017-06-12T02:03:33.177Z,60.72
2017-06-12T02:04:33.154Z,61.21
2017-06-12T02:05:33.135Z,61.02
2017-06-12T02:06:33.114Z,61.02
2017-06-12T02:07:33.097Z,61.21
2017-06-12T02:08:33.072Z,61.11
2017-06-12T02:09:33.085Z,61.02
2017-06-12T02:10:32.741Z,60.35
2017-06-12T02:11:33.030Z,60.72
2017-06-12T02:12:32.704Z,60.92
2017-06-12T02:13:32.728Z,60.92
2017-06-12T02:14:32.658Z,61.21
2017-06-12T02:15:32.642Z,60.92
2017-06-12T02:16:32.975Z,61.21
2017-06-12T02:17:32.627Z,61.11
2017-06-12T02:18:32.583Z,61.02
2017-06-12T02:19:32.558Z,60.82
2017-06-12T02:20:32.547Z,60.72
2017-06-12T02:21:32.832Z,60.82
2017-06-12T02:22:32.815Z,60.92
2017-06-12T02:23:32.498Z,60.92
2017-06-12T02:24:32.461Z,60.72
2017-06-12T02:25:33.101Z,60.72
2017-06-12T02:26:32.738Z,60.72
2017-06-12T02:27:32.411Z,60.63
2017-06-12T02:28:32.381Z,60.72
2017-06-12T02:29:32.366Z,60.82
2017-06-12T02:30:32.358Z,61.46
2017-06-12T02:31:32.332Z,61.37
2017-06-12T02:32:32.315Z,61.46
2017-06-12T02:33:32.295Z,61.37
2017-06-12T02:34:32.280Z,61.37
2017-06-12T02:35:32.251Z,61.75
2017-06-12T02:36:32.232Z,61.85
2017-06-12T02:37:32.263Z,61.66
2017-06-12T02:38:32.214Z,61.66
2017-06-12T02:39:32.484Z,61.66
2017-06-12T02:40:32.499Z,62.13
2017-06-12T02:41:32.132Z,61.85
2017-06-12T02:42:32.155Z,61.66
2017-06-12T02:43:32.379Z,61.85
2017-06-12T02:44:32.355Z,61.94
2017-06-12T02:45:32.343Z,61.85
2017-06-12T02:46:32.320Z,61.75
2017-06-12T02:47:32.297Z,62.13
2017-06-12T02:48:32.281Z,62.13
2017-06-12T02:49:32.254Z,62.33
2017-06-12T02:50:32.237Z,62.52
2017-06-12T02:51:32.217Z,62.52
2017-06-12T02:52:32.196Z,62.33
2017-06-12T02:53:32.176Z,62.3
2017-06-12T02:54:32.162Z,62.87
2017-06-12T02:55:32.140Z,63.06
2017-06-12T02:56:32.113Z,62.68
2017-06-12T02:57:32.096Z,62.59
2017-06-12T02:58:32.079Z,62.87
2017-06-12T02:59:32.086Z,62.77
2017-06-12T03:00:32.040Z,63.26
2017-06-12T03:01:31.711Z,63.35
2017-06-12T03:02:31.994Z,63.35
2017-06-12T03:03:31.973Z,63.35
2017-06-12T03:04:31.949Z,63.06
2017-06-12T03:05:32.184Z,63.45
2017-06-12T03:06:31.916Z,63.54
2017-06-12T03:07:31.593Z,63.35
2017-06-12T03:08:31.872Z,63.54
2017-06-12T03:09:31.857Z,63.83
2017-06-12T03:10:31.882Z,63.35
2017-06-12T03:11:31.815Z,63.51
2017-06-12T03:12:31.796Z,64.28
2017-06-12T03:13:31.771Z,64.12
2017-06-12T03:14:31.859Z,64.31
2017-06-12T03:15:31.728Z,64.02
2017-06-12T03:16:31.713Z,64.09
2017-06-12T03:17:31.690Z,63.92
2017-06-12T03:18:31.674Z,63.92
2017-06-12T03:19:31.651Z,64.4
2017-06-12T03:20:31.630Z,64.28
2017-06-12T03:21:31.611Z,64.66
2017-06-12T03:22:31.295Z,64.56
2017-06-12T03:23:31.571Z,64.56
2017-06-12T03:24:31.553Z,63.89
2017-06-12T03:25:31.541Z,64.56
2017-06-12T03:26:31.508Z,64.28
2017-06-12T03:27:31.494Z,65.05
2017-06-12T03:28:31.472Z,64.95
2017-06-12T03:29:31.446Z,64.76
2017-06-12T03:30:31.456Z,64.56
2017-06-12T03:31:31.412Z,64.66
2017-06-12T03:32:31.437Z,64.76
2017-06-12T03:33:31.372Z,64.85
2017-06-12T03:34:31.353Z,65.33
2017-06-12T03:35:31.327Z,65.42
2017-06-12T03:36:31.305Z,65.14
2017-06-12T03:37:31.310Z,65.23
2017-06-12T03:38:31.262Z,65.05
2017-06-12T03:39:31.250Z,65.42
2017-06-12T03:40:31.223Z,65.42
2017-06-12T03:41:31.252Z,65.52
2017-06-12T03:42:31.182Z,65.42
2017-06-12T03:43:31.168Z,65.42
2017-06-12T03:44:31.397Z,65.52
2017-06-12T03:45:31.119Z,65.52
2017-06-12T03:46:31.102Z,65.52
2017-06-12T03:47:31.079Z,65.42
2017-06-12T03:48:31.062Z,65.71
2017-06-12T03:49:31.041Z,65.71
2017-06-12T03:50:31.021Z,65.42
2017-06-12T03:51:31.006Z,65.52
2017-06-12T03:52:30.979Z,66.38
2017-06-12T03:53:31.215Z,66
2017-06-12T03:54:30.940Z,65.91
2017-06-12T03:55:30.919Z,66.38
2017-06-12T03:56:30.948Z,66.09
2017-06-12T03:57:30.879Z,66.48
2017-06-12T03:58:30.857Z,66.48
2017-06-12T03:59:30.838Z,66.96
2017-06-12T04:00:30.869Z,66.48
2017-06-12T04:01:30.798Z,66.29
2017-06-12T04:02:30.834Z,66.67
2017-06-12T04:03:30.755Z,66.96
2017-06-12T04:04:30.738Z,66.89
2017-06-12T04:05:30.718Z,66.99
2017-06-12T04:06:30.694Z,66.51
2017-06-12T04:07:30.679Z,65.94
2017-06-12T04:08:30.658Z,66.32
2017-06-12T04:09:30.639Z,65.78
2017-06-12T04:10:30.617Z,65.78
2017-06-12T04:11:30.590Z,65.68
2017-06-12T04:12:30.574Z,65.59
2017-06-12T04:13:30.558Z,65.01
2017-06-12T04:14:30.536Z,64.56
2017-06-12T04:15:30.521Z,65.14
2017-06-12T04:16:30.502Z,64.66
2017-06-12T04:17:30.478Z,63.7
2017-06-12T04:18:30.515Z,64.18
2017-06-12T04:19:30.441Z,63.83
2017-06-12T04:20:30.426Z,63.92
2017-06-12T04:21:30.401Z,63.73
2017-06-12T04:22:30.630Z,63.45
2017-06-12T04:23:30.364Z,63.45
2017-06-12T04:24:30.340Z,63.35
2017-06-12T04:25:30.323Z,63.45
2017-06-12T04:26:30.302Z,63.06
2017-06-12T04:27:30.284Z,62.58
2017-06-12T04:28:30.263Z,62.68
2017-06-12T04:29:30.298Z,62.68
2017-06-12T04:30:30.225Z,61.75
2017-06-12T04:31:30.207Z,62.23
2017-06-12T04:32:30.188Z,61.75
2017-06-12T04:33:30.170Z,61.87
2017-06-12T04:34:29.852Z,60.91
2017-06-12T04:35:30.134Z,60.14
2017-06-12T04:36:30.113Z,60.91
2017-06-12T04:37:30.118Z,60.43
2017-06-12T04:38:30.079Z,60.34
2017-06-12T04:39:30.064Z,60.14
2017-06-12T04:40:29.744Z,60.08
2017-06-12T04:41:30.019Z,60.37
2017-06-12T04:42:30.003Z,59.31
2017-06-12T04:43:29.985Z,59.24
2017-06-12T04:44:29.978Z,59.44
2017-06-12T04:45:29.948Z,58.86
2017-06-12T04:46:29.941Z,58.18
2017-06-12T04:47:29.910Z,58.47
2017-06-12T04:48:29.593Z,57.83
2017-06-12T04:49:29.889Z,57.83
2017-06-12T04:50:29.864Z,57.83
2017-06-12T04:51:29.842Z,57.42
2017-06-12T04:52:29.825Z,57.92
2017-06-12T04:53:29.805Z,57.45
2017-06-12T04:54:29.494Z,57.54
2017-06-12T04:55:29.776Z,57.83
2017-06-12T04:56:29.751Z,57.92
2017-06-12T04:57:29.742Z,57.64
2017-06-12T04:58:29.724Z,57.45
2017-06-12T04:59:29.701Z,57.15
2017-06-12T05:00:29.686Z,56.41
2017-06-12T05:01:29.667Z,56.7
2017-06-12T05:02:29.652Z,56.9
2017-06-12T05:03:29.631Z,55.74
2017-06-12T05:04:29.613Z,55.77
2017-06-12T05:05:29.598Z,56.51
2017-06-12T05:06:29.581Z,56.41
2017-06-12T05:07:29.562Z,56.58
2017-06-12T05:08:29.550Z,57.06
2017-06-12T05:09:29.526Z,57.99
2017-06-12T05:10:29.512Z,58.47
2017-06-12T05:11:29.547Z,58.57
2017-06-12T05:12:29.482Z,59.02
2017-06-12T05:13:29.457Z,59.31
2017-06-12T05:14:29.443Z,59.5
2017-06-12T05:15:29.428Z,60.27
2017-06-12T05:16:29.415Z,59.99
2017-06-12T05:17:29.387Z,59.6
2017-06-12T05:18:29.376Z,60.17
2017-06-12T05:19:29.351Z,60.17
2017-06-12T05:20:29.336Z,60.37
2017-06-12T05:21:29.321Z,60.46
2017-06-12T05:22:29.301Z,60.75
2017-06-12T05:23:29.281Z,61.14
2017-06-12T05:24:28.958Z,61.33
2017-06-12T05:25:29.246Z,61.81
2017-06-12T05:26:29.229Z,60.85
2017-06-12T05:27:29.209Z,61.07
2017-06-12T05:28:29.190Z,60.49
2017-06-12T05:29:28.867Z,60.04
2017-06-12T05:30:29.162Z,59.47
2017-06-12T05:31:29.142Z,58.72
2017-06-12T05:32:29.123Z,58.24
2017-06-12T05:33:29.106Z,58.05
2017-06-12T05:34:29.136Z,57.95
2017-06-12T05:35:29.068Z,58.34
2017-06-12T05:36:29.056Z,57.89
2017-06-12T05:37:29.035Z,57.5
2017-06-12T05:38:29.020Z,57.02
2017-06-12T05:39:29.005Z,57.14
2017-06-12T05:40:29.049Z,57.24
2017-06-12T05:41:28.976Z,56.27
2017-06-12T05:42:28.953Z,55.54
2017-06-12T05:43:28.937Z,55.44
2017-06-12T05:44:28.919Z,55.36
2017-06-12T05:45:28.904Z,54.5
2017-06-12T05:46:28.888Z,54.02
2017-06-12T05:47:28.875Z,53.08
2017-06-12T05:48:28.855Z,53.56
2017-06-12T05:49:28.848Z,53.47
2017-06-12T05:50:28.827Z,53.27
2017-06-12T05:51:28.814Z,53.75
2017-06-12T05:52:28.797Z,52.89
2017-06-12T05:53:29.037Z,52.98
2017-06-12T05:54:28.769Z,52.33
2017-06-12T05:55:28.757Z,52.62
2017-06-12T05:56:28.742Z,52.31
2017-06-12T05:57:28.721Z,52.11
2017-06-12T05:58:28.713Z,53.15
2017-06-12T05:59:28.693Z,53.34
2017-06-12T06:00:28.729Z,54.09
2017-06-12T06:01:28.671Z,53.89
2017-06-12T06:02:28.697Z,54.18
2017-06-12T06:03:28.634Z,54.64
2017-06-12T06:04:28.623Z,54.28
2017-06-12T06:05:28.653Z,54.47
2017-06-12T06:06:28.644Z,54.57
2017-06-12T06:07:28.568Z,53.83
2017-06-12T06:08:28.561Z,54.02
2017-06-12T06:09:28.540Z,53.66
2017-06-12T06:10:28.535Z,52.79
2017-06-12T06:11:28.512Z,52.59
2017-06-12T06:12:28.498Z,52.5
2017-06-12T06:13:28.480Z,51.75
2017-06-12T06:14:28.466Z,51.39
2017-06-12T06:15:28.453Z,51.23
2017-06-12T06:16:28.440Z,50.07
2017-06-12T06:17:28.429Z,48.83
2017-06-12T06:18:28.431Z,48.54
2017-06-12T06:19:28.450Z,48.61
2017-06-12T06:20:28.393Z,48.81
2017-06-12T06:21:28.376Z,48.74
2017-06-12T06:22:28.364Z,48.54
2017-06-12T06:23:28.352Z,47.67
2017-06-12T06:24:28.334Z,46.63
2017-06-12T06:25:28.321Z,46.63
2017-06-12T06:26:28.309Z,46.53
2017-06-12T06:27:28.291Z,46.51
2017-06-12T06:28:28.281Z,46.12
2017-06-12T06:29:28.270Z,46.12
2017-06-12T06:30:28.261Z,46.61
2017-06-12T06:31:28.247Z,46.51
2017-06-12T06:32:28.232Z,46.8
2017-06-12T06:33:28.220Z,47.45
2017-06-12T06:34:28.255Z,47.45
2017-06-12T06:35:28.197Z,47.36
2017-06-12T06:36:28.182Z,47.16
2017-06-12T06:37:28.170Z,46.49
2017-06-12T06:38:28.205Z,46.58
2017-06-12T06:39:28.141Z,46.61
2017-06-12T06:40:28.137Z,45.83
2017-06-12T06:41:28.117Z,45.86
2017-06-12T06:42:28.108Z,46.15
2017-06-12T06:43:28.099Z,45.3
2017-06-12T06:44:28.085Z,45.03
2017-06-12T06:45:27.773Z,44.64
2017-06-12T06:46:28.065Z,44.26
2017-06-12T06:47:28.056Z,43.7
2017-06-12T06:48:28.037Z,43.89
2017-06-12T06:49:28.074Z,43.68
2017-06-12T06:50:28.012Z,44.74
2017-06-12T06:51:28.003Z,45.01
2017-06-12T06:52:27.988Z,44.33
2017-06-12T06:53:27.972Z,44.23
2017-06-12T06:54:27.965Z,43.55
2017-06-12T06:55:27.953Z,43.55
2017-06-12T06:56:27.942Z,43.55
2017-06-12T06:57:27.926Z,44.31
2017-06-12T06:58:27.937Z,44.77
2017-06-12T06:59:27.900Z,45.33
2017-06-12T07:00:27.896Z,45.35
2017-06-12T07:01:27.877Z,44.87
2017-06-12T07:02:27.866Z,44.7
2017-06-12T07:03:27.850Z,43.92
2017-06-12T07:04:27.845Z,43.65
2017-06-12T07:05:27.826Z,43.82
2017-06-12T07:06:27.813Z,43.82
2017-06-12T07:07:27.808Z,44.4
2017-06-12T07:08:27.800Z,44.4
2017-06-12T07:09:27.787Z,45.06
2017-06-12T07:10:27.767Z,45.54
2017-06-12T07:11:27.753Z,45.54
2017-06-12T07:12:27.734Z,45.91
2017-06-12T07:13:27.443Z,46.39
2017-06-12T07:14:27.708Z,46.49
2017-06-12T07:15:27.707Z,46.27
2017-06-12T07:16:27.684Z,46.66
2017-06-12T07:17:27.670Z,47.05
2017-06-12T07:18:27.658Z,46.2
2017-06-12T07:19:27.645Z,47.26
2017-06-12T07:20:27.631Z,47.33
2017-06-12T07:21:27.310Z,47.43
2017-06-12T07:22:27.603Z,48.21
2017-06-12T07:23:27.587Z,48.57
2017-06-12T07:24:27.577Z,49.63
2017-06-12T07:25:27.564Z,49.7
2017-06-12T07:26:27.546Z,49.7
2017-06-12T07:27:27.531Z,49.51
2017-06-12T07:28:27.513Z,49.9
2017-06-12T07:29:27.503Z,49.99
2017-06-12T07:30:27.482Z,50.64
2017-06-12T07:31:27.166Z,50.84
2017-06-12T07:32:27.454Z,51.61
2017-06-12T07:33:27.440Z,51.29
2017-06-12T07:34:27.423Z,52.83
2017-06-12T07:35:27.410Z,52.93
2017-06-12T07:36:27.446Z,52.35
2017-06-12T07:37:27.379Z,51.51
2017-06-12T07:38:27.362Z,50.31
2017-06-12T07:39:27.341Z,49.44
2017-06-12T07:40:27.334Z,49.34
2017-06-12T07:41:27.321Z,49.73
2017-06-12T07:42:27.299Z,50.38
2017-06-12T07:43:27.038Z,51.12
2017-06-12T07:44:27.269Z,51.77
2017-06-12T07:45:27.256Z,52.23
2017-06-12T07:46:27.236Z,52.91
2017-06-12T07:47:27.223Z,53.07
2017-06-12T07:48:27.208Z,53.65
2017-06-12T07:49:27.188Z,53.74
2017-06-12T07:50:27.175Z,53.94
2017-06-12T07:51:27.203Z,53.19
2017-06-12T07:52:27.139Z,53.58
2017-06-12T07:53:27.126Z,53.19
2017-06-12T07:54:27.108Z,53.39
2017-06-12T07:55:27.192Z,53.03
2017-06-12T07:56:27.172Z,53.03
2017-06-12T07:57:27.061Z,52.93
2017-06-12T07:58:27.045Z,53.03
2017-06-12T07:59:27.031Z,52.64
2017-06-12T08:00:27.010Z,52.93
2017-06-12T08:01:27.003Z,52.81
2017-06-12T08:02:26.979Z,52.81
2017-06-12T08:03:26.959Z,52.42
2017-06-12T08:04:26.946Z,52.35
2017-06-12T08:05:26.985Z,52.55
2017-06-12T08:06:26.916Z,52.64
2017-06-12T08:07:26.599Z,52.35
2017-06-12T08:08:26.986Z,52.16
2017-06-12T08:09:26.868Z,52.47
2017-06-12T08:10:26.851Z,52.28
2017-06-12T08:11:26.533Z,52.28
2017-06-12T08:12:26.817Z,52.37
2017-06-12T08:13:26.807Z,52.47
2017-06-12T08:14:26.790Z,52.37
2017-06-12T08:15:26.823Z,52.47
2017-06-12T08:16:26.862Z,52.67
2017-06-12T08:17:26.741Z,53.03
2017-06-12T08:18:26.723Z,53.22
2017-06-12T08:19:26.959Z,53.77
2017-06-12T08:20:26.693Z,54.25
2017-06-12T08:21:26.826Z,53.94
2017-06-12T08:22:26.658Z,54.42
2017-06-12T08:23:26.645Z,55.09
2017-06-12T08:24:26.625Z,55.38
2017-06-12T08:25:26.610Z,55.48
2017-06-12T08:26:26.594Z,55.65
2017-06-12T08:27:26.580Z,55.93
2017-06-12T08:28:26.569Z,55.77
2017-06-12T08:29:26.538Z,55.19
2017-06-12T08:30:26.527Z,55.57
2017-06-12T08:31:26.504Z,55.67
2017-06-12T08:32:26.496Z,55.57
2017-06-12T08:33:26.475Z,55.96
2017-06-12T08:34:26.453Z,56.25
2017-06-12T08:35:26.441Z,56.22
2017-06-12T08:36:26.472Z,57.09
2017-06-12T08:37:26.101Z,56.96
2017-06-12T08:38:26.389Z,56.96
2017-06-12T08:39:26.374Z,56.9
2017-06-12T08:40:26.358Z,57.28
2017-06-12T08:41:26.338Z,56.35
2017-06-12T08:42:26.372Z,56.15
2017-06-12T08:43:26.306Z,55.96
2017-06-12T08:44:26.288Z,56.15
2017-06-12T08:45:26.279Z,55.96
2017-06-12T08:46:26.260Z,56.05
2017-06-12T08:47:26.230Z,56.05
2017-06-12T08:48:26.216Z,56.44
2017-06-12T08:49:26.200Z,56.7
2017-06-12T08:50:26.179Z,56.9
2017-06-12T08:51:26.170Z,54.9
2017-06-12T08:52:26.150Z,52.93
2017-06-12T08:53:26.181Z,50.96
2017-06-12T08:54:26.168Z,48.88
2017-06-12T08:55:26.102Z,46.58
2017-06-12T08:56:26.085Z,44.31
2017-06-12T08:57:26.075Z,43.63
2017-06-12T08:58:26.060Z,44.02
2017-06-12T08:59:25.745Z,43.32
2017-06-12T09:00:25.727Z,43.78
2017-06-12T09:01:26.017Z,44.84
2017-06-12T09:02:25.997Z,45.21
2017-06-12T09:03:26.033Z,45.89
2017-06-12T09:04:25.970Z,46.44
2017-06-12T09:05:25.957Z,46.54
2017-06-12T09:06:25.943Z,46.71
2017-06-12T09:07:25.924Z,47.19
2017-06-12T09:08:25.918Z,47.77
2017-06-12T09:09:25.891Z,48.03
2017-06-12T09:10:25.878Z,48.79
2017-06-12T09:11:25.857Z,48.21
2017-06-12T09:12:25.846Z,49.15
2017-06-12T09:13:25.828Z,49.43
2017-06-12T09:14:25.865Z,49.73
2017-06-12T09:15:25.800Z,49.99
2017-06-12T09:16:25.783Z,49.6
2017-06-12T09:17:25.761Z,50.76
2017-06-12T09:18:25.454Z,50.57
2017-06-12T09:19:25.731Z,51.05
2017-06-12T09:20:25.713Z,50.63
2017-06-12T09:21:25.701Z,50.76
2017-06-12T09:22:25.684Z,50.27
2017-06-12T09:23:25.666Z,50.57
2017-06-12T09:24:25.647Z,50.76
2017-06-12T09:25:25.636Z,50.95
2017-06-12T09:26:25.613Z,51.05
2017-06-12T09:27:25.608Z,50.66
2017-06-12T09:28:25.578Z,50.66
2017-06-12T09:29:25.563Z,51.14
2017-06-12T09:30:25.546Z,50.95
2017-06-12T09:31:25.529Z,50.83
2017-06-12T09:32:25.815Z,51.31
2017-06-12T09:33:25.192Z,50.83
2017-06-12T09:34:25.482Z,51.41
2017-06-12T09:35:25.460Z,51.5
2017-06-12T09:36:25.443Z,51.57
2017-06-12T09:37:25.435Z,51.96
2017-06-12T09:38:25.406Z,51.79
2017-06-12T09:39:25.393Z,51.98
2017-06-12T09:40:25.370Z,51.41
2017-06-12T09:41:25.352Z,50.85
2017-06-12T09:42:25.347Z,50.47
2017-06-12T09:43:25.318Z,50.09
2017-06-12T09:44:25.306Z,49.41
2017-06-12T09:45:25.284Z,49.6
2017-06-12T09:46:25.270Z,49.7
2017-06-12T09:47:25.251Z,49.82
2017-06-12T09:48:25.247Z,49.91
2017-06-12T09:49:25.218Z,49.91
2017-06-12T09:50:25.352Z,49.34
2017-06-12T09:51:25.182Z,49.63
2017-06-12T09:52:25.166Z,49.63
2017-06-12T09:53:25.147Z,49.53
2017-06-12T09:54:25.132Z,50.3
2017-06-12T09:55:25.114Z,50.57
2017-06-12T09:56:25.097Z,50.85
2017-06-12T09:57:25.087Z,51.53
2017-06-12T09:58:25.114Z,51.43
2017-06-12T09:59:25.039Z,51.72
2017-06-12T10:00:25.024Z,51.53
2017-06-12T10:01:25.013Z,52.66
2017-06-12T10:02:24.997Z,52.08
2017-06-12T10:03:24.977Z,52.37
2017-06-12T10:04:24.958Z,52.47
2017-06-12T10:05:24.946Z,51.5
2017-06-12T10:06:24.925Z,51.79
2017-06-12T10:07:24.909Z,51.6
2017-06-12T10:08:24.594Z,51.5
2017-06-12T10:09:24.873Z,51.6
2017-06-12T10:10:24.854Z,50.93
2017-06-12T10:11:24.834Z,51.6
2017-06-12T10:12:24.517Z,51.41
2017-06-12T10:13:24.800Z,51.31
2017-06-12T10:14:24.779Z,51.6
2017-06-12T10:15:24.764Z,51.6
2017-06-12T10:16:24.795Z,51.5
2017-06-12T10:17:24.731Z,51.5
2017-06-12T10:18:24.714Z,51.21
2017-06-12T10:19:24.694Z,51.5
2017-06-12T10:20:24.677Z,51.41
2017-06-12T10:21:24.664Z,51.41
2017-06-12T10:22:24.645Z,51.5
2017-06-12T10:23:24.626Z,51.5
2017-06-12T10:24:24.612Z,51.53
2017-06-12T10:25:24.586Z,51.24
2017-06-12T10:26:24.576Z,50.57
2017-06-12T10:27:24.555Z,49.91
2017-06-12T10:28:24.541Z,49.43
2017-06-12T10:29:24.521Z,49.46
2017-06-12T10:30:24.505Z,48.79
2017-06-12T10:31:24.487Z,48.69
2017-06-12T10:32:24.470Z,48.69
2017-06-12T10:33:24.463Z,48.49
2017-06-12T10:34:24.434Z,48.79
2017-06-12T10:35:24.435Z,48.59
2017-06-12T10:36:24.400Z,48.59
2017-06-12T10:37:24.399Z,48.69
2017-06-12T10:38:24.370Z,48.49
2017-06-12T10:39:24.358Z,47.82
2017-06-12T10:40:24.341Z,47.55
2017-06-12T10:41:24.320Z,47.44
2017-06-12T10:42:24.361Z,47.44
2017-06-12T10:43:24.290Z,47.14
2017-06-12T10:44:24.276Z,47.53
2017-06-12T10:45:24.260Z,47.44
2017-06-12T10:46:24.241Z,47.44
2017-06-12T10:47:23.931Z,47.44
2017-06-12T10:48:24.207Z,47.8
2017-06-12T10:49:24.190Z,47.31
2017-06-12T10:50:24.171Z,47.99
2017-06-12T10:51:24.156Z,48.08
2017-06-12T10:52:24.144Z,47.51
2017-06-12T10:53:24.121Z,47.6
2017-06-12T10:54:24.101Z,47.51
2017-06-12T10:55:24.095Z,47.99
2017-06-12T10:56:24.078Z,47.41
2017-06-12T10:57:24.054Z,47.41
2017-06-12T10:58:24.040Z,47.89
2017-06-12T10:59:24.025Z,47.7
2017-06-12T11:00:24.001Z,47.89
2017-06-12T11:01:23.989Z,47.87
2017-06-12T11:02:23.970Z,48.54
2017-06-12T11:03:23.953Z,48.54
2017-06-12T11:04:23.940Z,49.12
2017-06-12T11:05:23.918Z,49.32
2017-06-12T11:06:23.902Z,50.15
2017-06-12T11:07:23.888Z,50.06
2017-06-12T11:08:23.866Z,50.83
2017-06-12T11:09:23.849Z,50.93
2017-06-12T11:10:23.833Z,51.5
2017-06-12T11:11:23.520Z,51.67
2017-06-12T11:12:23.803Z,51.57
2017-06-12T11:13:23.780Z,51.67
2017-06-12T11:14:23.759Z,52.54
2017-06-12T11:15:23.744Z,51.67
2017-06-12T11:16:23.733Z,51.57
2017-06-12T11:17:23.712Z,51.76
2017-06-12T11:18:23.683Z,51.7
2017-06-12T11:19:23.673Z,51.41
2017-06-12T11:20:23.655Z,51.5
2017-06-12T11:21:23.635Z,50.66
2017-06-12T11:22:23.318Z,51.14
2017-06-12T11:23:23.600Z,49.99
2017-06-12T11:24:23.580Z,49.6
2017-06-12T11:25:23.565Z,48.95
2017-06-12T11:26:23.597Z,49.24
2017-06-12T11:27:23.527Z,48.76
2017-06-12T11:28:23.524Z,48.57
2017-06-12T11:29:23.506Z,48.47
2017-06-12T11:30:23.485Z,47.99
2017-06-12T11:31:23.683Z,48.21
2017-06-12T11:32:23.443Z,47.24
2017-06-12T11:33:23.433Z,47.24
2017-06-12T11:34:23.460Z,47.05
2017-06-12T11:35:23.390Z,46.66
2017-06-12T11:36:23.386Z,47.53
2017-06-12T11:37:23.359Z,47.41
2017-06-12T11:38:23.350Z,47.8
2017-06-12T11:39:23.325Z,48.18
2017-06-12T11:40:23.320Z,48.18
2017-06-12T11:41:23.292Z,47.92
2017-06-12T11:42:23.330Z,48.38
2017-06-12T11:43:23.259Z,48.66
2017-06-12T11:44:23.242Z,48.66
2017-06-12T11:45:23.276Z,49.6
2017-06-12T11:46:23.211Z,49.41
2017-06-12T11:47:23.195Z,50.18
2017-06-12T11:48:23.178Z,51.02
2017-06-12T11:49:23.161Z,50.93
2017-06-12T11:50:23.143Z,51.79
2017-06-12T11:51:23.118Z,51.5
2017-06-12T11:52:23.103Z,51.5
2017-06-12T11:53:23.093Z,52.08
2017-06-12T11:54:23.070Z,52.25
2017-06-12T11:55:23.054Z,52.63
2017-06-12T11:56:23.031Z,53.11
2017-06-12T11:57:23.019Z,53.02
2017-06-12T11:58:23.006Z,53.11
2017-06-12T11:59:22.985Z,53.21
2017-06-12T12:00:22.961Z,52.92
2017-06-12T12:01:22.944Z,52.66
2017-06-12T12:02:22.927Z,52.18
2017-06-12T12:03:22.968Z,52.4
2017-06-12T12:04:22.899Z,51.82
2017-06-12T12:05:22.870Z,51.36
2017-06-12T12:06:22.858Z,51.65
2017-06-12T12:07:22.839Z,50.78
2017-06-12T12:08:22.820Z,50.78
2017-06-12T12:09:22.802Z,50.69
2017-06-12T12:10:22.786Z,50.76
2017-06-12T12:11:22.793Z,50.85
2017-06-12T12:12:22.751Z,50.85
2017-06-12T12:13:22.732Z,50.66
2017-06-12T12:14:22.719Z,50.54
2017-06-12T12:15:22.696Z,51.7
2017-06-12T12:16:22.677Z,51.57
2017-06-12T12:17:22.663Z,51.76
2017-06-12T12:18:22.640Z,52.54
2017-06-12T12:19:22.630Z,52.34
2017-06-12T12:20:22.605Z,52.34
2017-06-12T12:21:22.583Z,52.25
2017-06-12T12:22:22.617Z,52.15
2017-06-12T12:23:22.601Z,52.06
2017-06-12T12:24:22.535Z,51.96
2017-06-12T12:25:22.513Z,52.44
2017-06-12T12:26:22.504Z,52.06
2017-06-12T12:27:22.481Z,52.54
2017-06-12T12:28:22.462Z,52.34
2017-06-12T12:29:22.452Z,52.44
2017-06-12T12:30:22.428Z,52.92
2017-06-12T12:31:22.406Z,52.92
2017-06-12T12:32:22.386Z,52.92
2017-06-12T12:33:22.371Z,53.59
2017-06-12T12:34:22.348Z,53.31
2017-06-12T12:35:22.331Z,53.4
2017-06-12T12:36:22.318Z,53.5
2017-06-12T12:37:22.298Z,52.83
2017-06-12T12:38:22.280Z,53.11
2017-06-12T12:39:22.264Z,52.75
2017-06-12T12:40:22.242Z,52.56
2017-06-12T12:41:22.226Z,52.18
2017-06-12T12:42:22.258Z,51.6
2017-06-12T12:43:22.193Z,51.53
2017-06-12T12:44:22.172Z,51.43
2017-06-12T12:45:22.153Z,51.43
2017-06-12T12:46:22.134Z,50.95
2017-06-12T12:47:22.116Z,50.21
2017-06-12T12:48:22.102Z,49.53
2017-06-12T12:49:22.084Z,49.15
2017-06-12T12:50:22.064Z,49.34
2017-06-12T12:51:22.053Z,48.57
2017-06-12T12:52:22.024Z,48.47
2017-06-12T12:53:22.015Z,48.69
2017-06-12T12:54:22.050Z,48.49